Latest Weather Observations for Alva Beach

IDQ60801

Issued at 9:02 pm EST Wednesday 25 May 2016 (issued every 30 minutes, with the page automatically refreshed every 10 minutes)

About weather observations | Map of weather stations | Latest weather observations for QLD | Other Formats
Station Details ID: 033295 Name: ALVA BEACH Lat: -19.46 Lon: 147.48 Height: 7.5 m
Data from the previous 72 hours. | See also: Recent months at Alva Beach
Date/Time
EST
Temp
°C
App
Temp
°C
Dew
Point
Rel
Hum
%
Delta-T
°C
Wind Press
QNH
hPa
Press
MSL
hPa
Rain
since 9 am
mm
Dir
 
Spd
km/h
Gust
km/h
Spd
kts
Gust
kts
25/09:00pm 25.0 24.9 18.7 68 4.0 E 17 24 9 13 1016.8 1016.8 0.0
25/08:30pm 24.9 24.8 18.8 69 3.9 E 17 24 9 13 1016.6 1016.6 0.0
25/08:00pm 24.8 24.6 18.5 68 4.0 E 17 22 9 12 1016.3 1016.3 0.0
25/07:30pm 24.8 24.2 18.5 68 4.0 E 19 24 10 13 1015.8 1015.8 0.0
25/07:00pm 24.9 25.0 18.4 67 4.1 E 15 20 8 11 1015.5 1015.5 0.0
25/06:30pm 24.8 24.5 18.3 67 4.1 E 17 22 9 12 1015.0 1015.0 0.0
25/06:00pm 25.0 24.6 18.0 65 4.4 E 17 22 9 12 1014.7 1014.7 0.0
25/05:30pm 24.8 25.9 19.6 73 3.3 E 13 17 7 9 1014.5 1014.5 0.0
25/05:00pm 25.3 25.3 18.0 64 4.6 E 15 20 8 11 1014.4 1014.4 0.0
25/04:30pm 26.2 28.0 20.3 70 3.9 ESE 11 19 6 10 1014.1 1014.1 0.0
25/04:00pm 26.2 27.7 19.8 68 4.1 E 11 19 6 10 1013.8 1013.8 0.0
25/03:30pm 26.5 28.2 20.1 68 4.2 E 11 20 6 11 1013.9 1013.9 0.0
25/03:00pm 26.6 28.0 20.4 69 4.1 ESE 13 20 7 11 1014.0 1014.0 0.0
25/02:30pm 26.5 27.3 19.9 67 4.3 E 15 19 8 10 1014.2 1014.2 0.0
25/02:00pm 27.1 28.6 19.7 64 4.8 ESE 11 17 6 9 1014.2 1014.2 0.0
25/01:30pm 26.4 27.6 19.8 67 4.3 E 13 19 7 10 1014.6 1014.6 0.0
25/01:00pm 26.3 27.6 19.2 65 4.6 E 11 17 6 9 1015.2 1015.2 0.0
25/12:30pm 26.5 27.8 19.4 65 4.6 ESE 11 19 6 10 1015.3 1015.3 0.0
25/12:00pm 27.8 29.1 20.1 63 5.0 ESE 13 20 7 11 1015.6 1015.6 0.0
25/11:30am 25.9 26.7 19.1 66 4.4 SE 13 19 7 10 1016.3 1016.3 0.0
25/11:00am 26.2 26.9 19.6 67 4.3 ESE 15 20 8 11 1016.6 1016.6 0.0
25/10:30am 25.5 26.8 18.4 65 4.5 ESE 9 15 5 8 1016.9 1016.9 0.0
25/10:00am 25.2 27.4 19.1 69 3.9 SE 6 11 3 6 1017.3 1017.3 0.0
25/09:30am 24.2 26.1 18.6 71 3.5 S 6 11 3 6 1017.4 1017.4 0.0
25/09:00am 23.1 24.6 18.0 73 3.2 S 7 9 4 5 1017.1 1017.1 0.0
25/08:30am 22.7 24.8 18.0 75 2.9 S 4 7 2 4 1016.9 1016.9 0.0
25/08:00am 22.2 23.4 17.3 74 3.0 S 7 11 4 6 1016.7 1016.7 0.0
25/07:30am 21.7 23.1 17.3 76 2.7 SSE 6 9 3 5 1015.7 1015.7 0.0
25/07:00am 21.2 22.2 16.8 76 2.7 SSE 7 13 4 7 1015.0 1015.0 0.0
25/06:30am 21.0 22.0 16.8 77 2.6 S 7 11 4 6 1015.5 1015.5 0.0
25/06:00am 20.9 22.0 16.5 76 2.7 S 6 9 3 5 1015.2 1015.2 0.0
25/05:30am 20.8 21.2 16.4 76 2.7 S 9 13 5 7 1014.9 1014.9 0.0
25/05:00am 20.9 21.8 16.5 76 2.7 S 7 13 4 7 1014.6 1014.6 0.0
25/04:30am 20.9 21.8 16.7 77 2.5 SSW 7 9 4 5 1014.7 1014.7 0.0
25/04:00am 21.4 22.4 16.8 75 2.8 SSW 7 11 4 6 1015.0 1015.0 0.0
25/03:30am 24.6 25.0 18.1 67 4.1 E 13 17 7 9 1015.3 1015.3 0.0
25/03:00am 24.6 25.1 18.3 68 4.0 E 13 19 7 10 1015.0 1015.0 0.0
25/02:30am 24.4 24.7 17.9 67 4.1 E 13 17 7 9 1015.4 1015.4 0.0
25/02:00am 24.6 25.1 18.3 68 4.0 E 13 19 7 10 1015.4 1015.4 0.0
25/01:30am 24.6 24.8 18.5 69 3.9 E 15 20 8 11 1015.7 1015.7 0.0
25/01:00am 24.7 25.2 18.4 68 4.0 E 13 20 7 11 1016.3 1016.3 0.0
25/12:30am 24.7 25.1 18.9 70 3.7 E 15 20 8 11 1016.6 1016.6 0.0
25/12:00am 24.8 24.8 19.0 70 3.7 E 17 22 9 12 1016.4 1016.4 0.0
 
Date/Time
EST
Temp
°C
App
Temp
°C
Dew
Point
Rel
Hum
%
Delta-T
°C
Wind Press
QNH
hPa
Press
MSL
hPa
Rain
since 9 am
mm
Dir
 
Spd
km/h
Gust
km/h
Spd
kts
Gust
kts
24/11:30pm 24.9 24.7 18.4 67 4.1 E 17 20 9 11 1016.8 1016.8 0.0
24/11:00pm 25.0 24.7 18.2 66 4.3 E 17 22 9 12 1016.9 1016.9 0.0
24/10:30pm 25.0 24.8 18.4 66 4.2 E 17 22 9 12 1017.1 1017.1 0.0
24/10:00pm 25.0 25.0 18.9 69 3.9 E 17 24 9 13 1017.1 1017.1 0.0
24/09:30pm 25.1 24.8 18.3 66 4.3 E 17 24 9 13 1017.3 1017.3 0.0
24/09:00pm 24.9 24.5 18.8 69 3.9 E 19 24 10 13 1016.8 1016.8 0.0
24/08:30pm 24.9 24.4 18.6 68 4.0 E 19 24 10 13 1016.9 1016.9 0.0
24/08:00pm 24.9 25.1 19.3 71 3.6 E 17 22 9 12 1016.9 1016.9 0.0
24/07:30pm 24.8 24.4 19.0 70 3.7 E 19 24 10 13 1016.4 1016.4 0.0
24/07:00pm 24.9 24.8 19.5 72 3.5 E 19 24 10 13 1015.9 1015.9 0.0
24/06:30pm 24.8 24.6 19.4 72 3.5 E 19 24 10 13 1015.5 1015.5 0.0
24/06:00pm 24.9 24.4 18.6 68 4.0 E 19 26 10 14 1015.3 1015.3 0.0
24/05:30pm 24.9 24.8 18.8 69 3.9 E 17 24 9 13 1015.2 1015.2 0.0
24/05:00pm 25.0 25.3 18.7 68 4.0 E 15 20 8 11 1015.3 1015.3 0.0
24/04:30pm 25.1 26.0 19.2 70 3.8 E 13 19 7 10 1015.0 1015.0 0.0
24/04:00pm 25.1 26.0 19.2 70 3.8 E 13 17 7 9 1015.0 1015.0 0.0
24/03:30pm 25.7 26.8 18.9 66 4.3 E 11 17 6 9 1015.1 1015.1 0.0
24/03:00pm 26.6 27.7 17.9 59 5.5 E 9 17 5 9 1015.3 1015.3 0.0
24/02:30pm 26.9 28.4 19.0 62 5.1 ESE 9 17 5 9 1015.2 1015.2 0.0
24/02:00pm 26.5 28.0 18.9 63 4.9 E 9 17 5 9 1015.2 1015.2 0.0
24/01:30pm 26.2 26.8 17.8 60 5.3 ESE 11 17 6 9 1015.4 1015.4 0.0
24/01:00pm 26.7 28.1 18.6 61 5.2 ESE 9 15 5 8 1015.9 1015.9 0.0
24/12:30pm 26.7 27.7 17.8 58 5.6 ESE 9 17 5 9 1016.2 1016.2 0.0
24/12:00pm 26.3 27.1 18.2 61 5.1 SE 11 20 6 11 1016.7 1016.7 0.0
24/11:30am 26.5 26.8 17.8 58 5.5 SE 13 22 7 12 1017.1 1017.1 0.0
24/11:00am 26.4 27.5 18.8 63 4.9 SE 11 19 6 10 1017.3 1017.3 0.0
24/10:30am 25.2 25.7 17.4 62 4.9 SE 11 19 6 10 1017.5 1017.5 0.0
24/10:00am 24.9 25.4 17.4 63 4.7 SE 11 19 6 10 1017.5 1017.5 0.0
24/09:30am 25.1 26.0 17.6 63 4.7 SE 9 15 5 8 1017.7 1017.7 0.0
24/09:00am 24.3 25.0 17.1 64 4.4 SSE 9 15 5 8 1017.4 1017.4 0.6
24/08:30am 23.4 23.7 16.9 67 4.0 S 11 17 6 9 1017.2 1017.2 0.6
24/08:00am 22.2 23.0 17.3 74 3.0 S 9 15 5 8 1016.7 1016.7 0.6
24/07:30am 20.7 21.3 16.7 78 2.4 SSW 9 13 5 7 1016.4 1016.4 0.6
24/07:00am 20.6 21.5 16.6 78 2.4 SW 7 11 4 6 1016.4 1016.4 0.6
24/06:30am 20.6 21.7 17.0 80 2.2 SSW 7 11 4 6 1016.0 1016.0 0.6
24/06:00am 20.7 21.8 17.1 80 2.2 S 7 11 4 6 1015.9 1015.9 0.6
24/05:30am 21.0 21.8 17.4 80 2.2 S 9 13 5 7 1015.7 1015.7 0.6
24/05:00am 21.2 22.1 17.6 80 2.2 S 9 13 5 7 1015.7 1015.7 0.6
24/04:30am 21.5 22.6 17.9 80 2.2 SSW 9 15 5 8 1015.9 1015.9 0.6
24/04:00am 21.7 22.8 18.1 80 2.2 S 9 13 5 7 1016.0 1016.0 0.6
24/03:30am 22.5 24.0 17.6 74 3.0 SSW 6 9 3 5 1016.3 1016.3 0.6
24/03:00am 23.5 24.3 18.2 72 3.3 SE 11 17 6 9 1016.2 1016.2 0.6
24/02:30am 23.7 23.8 18.4 72 3.3 SE 15 22 8 12 1016.6 1016.6 0.6
24/02:00am 23.6 24.2 18.7 74 3.1 ESE 13 20 7 11 1016.7 1016.7 0.6
24/01:30am 23.6 24.6 18.7 74 3.1 SE 11 19 6 10 1017.0 1017.0 0.6
24/01:00am 23.8 24.2 19.1 75 3.0 SE 15 24 8 13 1017.0 1017.0 0.6
24/12:30am 23.9 24.1 19.4 76 2.9 ESE 17 24 9 13 1017.3 1017.3 0.6
24/12:00am 24.0 24.3 19.7 77 2.8 SE 17 26 9 14 1017.3 1017.3 0.6
 
Date/Time
EST
Temp
°C
App
Temp
°C
Dew
Point
Rel
Hum
%
Delta-T
°C
Wind Press
QNH
hPa
Press
MSL
hPa
Rain
since 9 am
mm
Dir
 
Spd
km/h
Gust
km/h
Spd
kts
Gust
kts
23/11:30pm 24.1 24.1 19.8 77 2.8 SE 19 28 10 15 1017.1 1017.1 0.6
23/11:00pm 24.1 24.5 19.8 77 2.8 ESE 17 26 9 14 1017.3 1017.3 0.6
23/10:30pm 24.1 24.4 19.6 76 2.9 ESE 17 30 9 16 1017.5 1017.5 0.6
23/10:00pm 24.2 24.5 19.5 75 3.0 ESE 17 26 9 14 1017.5 1017.5 0.6
23/09:30pm 24.2 24.5 19.7 76 2.9 ESE 17 30 9 16 1017.4 1017.4 0.6
23/09:00pm 24.3 25.0 19.6 75 3.0 SE 15 24 8 13 1017.4 1017.4 0.6
23/08:30pm 24.4 25.2 19.0 72 3.4 ESE 13 20 7 11 1017.2 1017.2 0.6
23/08:00pm 24.3 25.4 19.6 75 3.0 ESE 13 22 7 12 1017.2 1017.2 0.6
23/07:30pm 24.3 24.5 19.4 74 3.1 ESE 17 24 9 13 1016.8 1016.8 0.6
23/07:00pm 24.3 23.8 19.1 73 3.3 ESE 20 28 11 15 1016.6 1016.6 0.6
23/06:30pm 24.3 23.9 19.4 74 3.1 E 20 28 11 15 1016.1 1016.1 0.6
23/06:00pm 24.3 24.7 19.8 76 2.9 ESE 17 26 9 14 1015.9 1015.9 0.6
23/05:30pm 24.3 24.5 19.4 74 3.1 ESE 17 24 9 13 1015.7 1015.7 0.6
23/05:00pm 24.5 25.7 19.8 75 3.0 ESE 13 22 7 12 1015.5 1015.5 0.6
23/04:30pm 24.4 25.0 19.5 74 3.1 ESE 15 22 8 12 1015.6 1015.6 0.6
23/04:00pm 24.4 25.3 20.1 77 2.8 ESE 15 28 8 15 1015.4 1015.4 0.6
23/03:30pm 24.1 24.3 20.6 81 2.3 E 20 30 11 16 1015.4 1015.4 0.6
23/03:00pm 24.8 25.9 20.5 77 2.8 ESE 15 24 8 13 1015.5 1015.5 0.6
23/02:30pm 24.8 26.0 20.7 78 2.7 SE 15 24 8 13 1015.5 1015.5 0.6
23/02:00pm 24.2 26.0 20.3 79 2.5 SE 11 22 6 12 1015.9 1015.9 0.6
23/01:30pm 24.0 26.1 20.1 79 2.5 SE 9 20 5 11 1016.5 1016.5 0.6
23/01:00pm 24.2 25.8 19.9 77 2.8 SE 11 20 6 11 1016.9 1016.9 0.0
23/12:30pm 24.8 25.7 19.2 71 3.6 SE 13 22 7 12 1017.1 1017.1 0.0
23/12:00pm 25.3 26.4 19.7 71 3.6 ESE 13 24 7 13 1017.3 1017.3 0.0
23/11:30am 25.5 27.2 19.4 69 3.9 SE 9 19 5 10 1017.5 1017.5 0.0
23/11:00am 25.2 26.0 19.1 69 3.9 SE 13 19 7 10 1017.6 1017.6 0.0
23/10:30am 25.3 26.6 19.2 69 3.9 SE 11 20 6 11 1018.0 1018.0 0.0
23/10:00am 25.2 26.4 19.1 69 3.9 SE 11 17 6 9 1018.2 1018.2 0.0
23/09:30am 24.7 26.4 19.3 72 3.5 SSE 9 15 5 8 1018.0 1018.0 0.0
23/09:00am 24.3 26.3 19.1 73 3.3 SSE 7 19 4 10 1017.8 1017.8 0.0
23/08:30am 23.6 25.9 19.9 80 2.4 SSW 7 13 4 7 1017.8 1017.8 0.0
23/08:00am 22.8 25.2 20.1 85 1.7 S 7 13 4 7 1017.4 1017.4 0.0
23/07:30am 22.2 24.8 20.1 88 1.4 SSW 6 9 3 5 1017.2 1017.2 0.0
23/07:00am 21.7 24.2 19.8 89 1.2 SSW 6 9 3 5 1017.0 1017.0 0.0
23/06:30am 21.9 24.4 19.1 84 1.8 SSW 4 7 2 4 1016.7 1016.7 0.0
23/06:00am 22.0 24.0 18.8 82 2.0 S 6 9 3 5 1016.2 1016.2 0.0
23/05:30am 22.2 23.9 18.6 80 2.3 SSW 7 11 4 6 1016.0 1016.0 0.0
23/05:00am 23.1 24.4 18.4 75 3.0 S 9 19 5 10 1015.6 1015.6 0.0
23/04:30am 24.1 25.2 19.6 76 2.9 SE 13 26 7 14 1015.6 1015.6 0.0
23/04:00am 24.1 25.3 20.0 78 2.6 ESE 13 22 7 12 1016.0 1016.0 0.0
23/03:30am 24.1 24.9 19.8 77 2.8 SE 15 22 8 12 1016.0 1016.0 0.0
23/03:00am 24.0 24.3 19.7 77 2.8 SE 17 24 9 13 1015.8 1015.8 0.0
23/02:30am 24.1 24.6 20.0 78 2.6 ESE 17 26 9 14 1015.7 1015.7 0.0
23/02:00am 24.1 25.3 20.0 78 2.6 ESE 13 24 7 13 1016.1 1016.1 0.0
23/01:30am 24.2 24.5 19.7 76 2.9 ESE 17 24 9 13 1016.3 1016.3 0.0
23/01:00am 24.2 24.9 19.7 76 2.9 ESE 15 24 8 13 1016.4 1016.4 0.0
23/12:30am 24.3 25.0 19.6 75 3.0 ESE 15 22 8 12 1016.8 1016.8 0.0
23/12:00am 24.4 25.1 19.7 75 3.0 ESE 15 24 8 13 1017.1 1017.1 0.0
 
Date/Time
EST
Temp
°C
App
Temp
°C
Dew
Point
Rel
Hum
%
Delta-T
°C
Wind Press
QNH
hPa
Press
MSL
hPa
Rain
since 9 am
mm
Dir
 
Spd
km/h
Gust
km/h
Spd
kts
Gust
kts
22/11:30pm 24.5 24.8 19.6 74 3.2 ESE 17 26 9 14 1017.3 1017.3 0.0
22/11:00pm 24.9 24.9 19.7 73 3.3 ESE 19 28 10 15 1017.4 1017.4 0.0
22/10:30pm 25.0 24.1 19.1 70 3.8 ESE 22 33 12 18 1017.5 1017.5 0.0
22/10:00pm 25.0 23.6 18.9 69 3.9 ESE 24 33 13 18 1017.7 1017.7 0.0
22/09:30pm 24.9 24.8 19.5 72 3.5 ESE 19 26 10 14 1017.9 1017.9 0.0

Other Formats:

Comma delimited format used in spreadsheet applications
http://www.bom.gov.au/fwo/IDQ60801/IDQ60801.95296.axf

JavaScript Object Notation format (JSON) in row-major order
http://www.bom.gov.au/fwo/IDQ60801/IDQ60801.95296.json